createdAt,value
2023-04-20T00:02:15.706Z,8.50
2023-04-20T00:07:14.342Z,8.50
2023-04-20T00:12:12.619Z,8.30
2023-04-20T00:17:12.808Z,8.20
2023-04-20T00:22:11.425Z,8.20
2023-04-20T00:27:10.002Z,8.30
2023-04-20T00:32:08.369Z,8.20
2023-04-20T00:37:08.373Z,8.20
2023-04-20T00:42:07.631Z,8.30
2023-04-20T00:47:06.169Z,8.20
2023-04-20T00:52:05.330Z,8.30
2023-04-20T00:57:06.600Z,8.30
2023-04-20T01:02:06.702Z,8.30
2023-04-20T01:07:05.331Z,8.30
2023-04-20T01:12:05.519Z,8.10
2023-04-20T01:17:04.896Z,8.00
2023-04-20T01:22:03.410Z,7.90
2023-04-20T01:27:03.417Z,8.00
2023-04-20T01:32:01.925Z,8.10
2023-04-20T01:37:00.675Z,8.20
2023-04-20T01:41:58.888Z,8.10
2023-04-20T01:46:59.196Z,8.00
2023-04-20T01:51:57.720Z,7.90
2023-04-20T01:56:56.494Z,8.00
2023-04-20T02:01:55.080Z,8.20
2023-04-20T02:06:55.030Z,8.00
2023-04-20T02:11:53.554Z,8.20
2023-04-20T02:16:53.560Z,8.30
2023-04-20T02:21:51.776Z,8.30
2023-04-20T02:26:51.693Z,8.30
2023-04-20T02:31:50.125Z,8.50
2023-04-20T02:36:49.138Z,8.40
2023-04-20T02:41:47.702Z,8.40
2023-04-20T02:46:47.717Z,8.50
2023-04-20T02:51:46.605Z,8.40
2023-04-20T02:56:45.281Z,8.30
2023-04-20T03:01:44.138Z,8.30
2023-04-20T03:06:50.962Z,8.60
2023-04-20T03:11:54.871Z,8.60
2023-04-20T03:17:31.976Z,8.60
2023-04-20T03:22:33.065Z,8.40
2023-04-20T03:27:33.404Z,8.30
2023-04-20T03:32:38.446Z,8.10
2023-04-20T03:37:39.228Z,8.10
2023-04-20T03:42:38.712Z,8.00
2023-04-20T03:47:37.532Z,8.00
2023-04-20T03:52:37.982Z,8.10
2023-04-20T03:57:37.043Z,7.90
2023-04-20T04:02:38.295Z,8.10
2023-04-20T04:07:38.576Z,8.10
2023-04-20T04:12:37.441Z,8.00
2023-04-20T04:17:36.275Z,8.20
2023-04-20T04:22:36.256Z,8.30
2023-04-20T04:28:00.151Z,8.20
2023-04-20T04:33:01.089Z,8.10
2023-04-20T04:37:59.782Z,8.30
2023-04-20T04:43:01.319Z,8.30
2023-04-20T04:48:00.351Z,8.40
2023-04-20T04:52:59.005Z,8.20
2023-04-20T04:57:57.639Z,8.10
2023-04-20T05:02:58.053Z,8.10
2023-04-20T05:07:57.004Z,8.20
2023-04-20T05:12:55.529Z,8.50
2023-04-20T05:17:54.143Z,8.30
2023-04-20T05:22:54.036Z,8.30
2023-04-20T05:27:52.439Z,8.30
2023-04-20T05:32:52.519Z,8.40
2023-04-20T05:37:51.333Z,8.40
2023-04-20T05:42:51.221Z,8.40
2023-04-20T05:47:55.774Z,8.60
2023-04-20T05:52:54.635Z,8.70
2023-04-20T05:57:54.552Z,8.70
2023-04-20T06:02:54.907Z,8.70
2023-04-20T06:07:53.555Z,8.90
2023-04-20T06:12:53.499Z,8.90
2023-04-20T06:17:52.174Z,8.90
2023-04-20T06:22:51.219Z,8.90
2023-04-20T06:27:51.326Z,9.00
2023-04-20T06:32:52.482Z,9.10
2023-04-20T06:37:51.477Z,9.20
2023-04-20T06:42:49.973Z,9.30
2023-04-20T06:47:48.875Z,9.40
2023-04-20T06:52:49.422Z,9.30
2023-04-20T06:57:47.934Z,9.40
2023-04-20T07:02:47.781Z,9.30
2023-04-20T07:07:46.699Z,9.30
2023-04-20T07:12:46.859Z,9.40
2023-04-20T07:17:45.407Z,9.40
2023-04-20T07:22:43.974Z,9.30
2023-04-20T07:27:42.833Z,9.50
2023-04-20T07:32:43.171Z,9.60
2023-04-20T07:37:42.063Z,9.50
2023-04-20T07:42:40.832Z,9.60
2023-04-20T07:47:39.400Z,9.60
2023-04-20T07:52:39.314Z,9.70
2023-04-20T07:57:37.840Z,9.70
2023-04-20T08:02:36.136Z,9.70
2023-04-20T08:07:35.246Z,9.70
2023-04-20T08:12:34.963Z,9.90
2023-04-20T08:17:34.162Z,9.80
2023-04-20T08:22:33.292Z,9.80
2023-04-20T08:27:31.801Z,9.90
2023-04-20T08:32:31.895Z,9.90
2023-04-20T08:37:32.495Z,9.80
2023-04-20T08:42:32.027Z,9.70
2023-04-20T08:47:34.617Z,9.80
2023-04-20T08:52:35.935Z,9.90
2023-04-20T08:57:34.090Z,9.90
2023-04-20T09:02:34.184Z,10.10
2023-04-20T09:07:32.911Z,10.20
2023-04-20T09:12:42.420Z,10.40
2023-04-20T09:17:42.395Z,10.50
2023-04-20T09:22:42.513Z,10.60
2023-04-20T09:27:41.058Z,10.60
2023-04-20T09:32:39.826Z,10.70
2023-04-20T09:37:49.122Z,10.70
2023-04-20T09:42:49.866Z,10.80
2023-04-20T09:47:49.983Z,10.90
2023-04-20T09:52:50.942Z,10.90
2023-04-20T09:57:51.222Z,11.00
2023-04-20T10:02:49.949Z,11.00
2023-04-20T10:08:00.297Z,11.10
2023-04-20T10:13:01.247Z,11.20
2023-04-20T10:17:59.902Z,11.30
2023-04-20T10:23:11.697Z,11.40
2023-04-20T10:28:11.335Z,11.70
2023-04-20T10:33:12.081Z,11.90
2023-04-20T10:38:12.455Z,12.00
2023-04-20T10:43:21.668Z,12.10
2023-04-20T10:48:20.344Z,12.30
2023-04-20T10:53:21.983Z,12.40
2023-04-20T10:58:24.417Z,12.40
2023-04-20T11:03:22.971Z,12.50
2023-04-20T11:08:44.802Z,12.40
2023-04-20T11:13:43.467Z,12.40
2023-04-20T11:18:53.354Z,12.50
2023-04-20T11:23:53.502Z,12.70
2023-04-20T11:28:56.716Z,12.80
2023-04-20T11:33:55.404Z,12.80
2023-04-20T11:38:55.841Z,12.80
2023-04-20T11:43:55.031Z,13.00
2023-04-20T11:48:54.087Z,13.00
2023-04-20T11:53:52.565Z,12.90
2023-04-20T11:58:52.560Z,12.90
2023-04-20T12:03:51.376Z,12.90
2023-04-20T12:08:49.726Z,12.90
2023-04-20T12:13:48.329Z,12.90
2023-04-20T12:18:48.584Z,12.90
2023-04-20T12:23:49.076Z,12.90
2023-04-20T12:28:47.799Z,12.80
2023-04-20T12:33:47.761Z,12.80
2023-04-20T12:38:46.278Z,12.80
2023-04-20T12:43:44.870Z,12.80
2023-04-20T12:48:45.530Z,12.70
2023-04-20T12:53:45.944Z,12.60
2023-04-20T12:58:45.038Z,12.50
2023-04-20T13:03:44.203Z,12.40
2023-04-20T13:08:43.912Z,12.40
2023-04-20T13:13:42.169Z,12.40
2023-04-20T13:18:40.668Z,12.40
2023-04-20T13:23:40.273Z,12.30
2023-04-20T13:28:40.147Z,12.20
2023-04-20T13:33:38.682Z,12.20
2023-04-20T13:38:37.199Z,12.40
2023-04-20T13:43:35.716Z,12.60
2023-04-20T13:48:35.641Z,12.70
2023-04-20T13:53:34.260Z,12.90
2023-04-20T13:58:32.826Z,13.00
2023-04-20T14:03:31.947Z,13.00
2023-04-20T14:08:31.942Z,13.00
2023-04-20T14:13:30.515Z,13.00
2023-04-20T14:18:29.060Z,13.10
2023-04-20T14:23:27.794Z,13.10
2023-04-20T14:28:28.529Z,13.20
2023-04-20T14:33:26.864Z,13.30
2023-04-20T14:38:26.169Z,13.40
2023-04-20T14:43:24.742Z,13.50
2023-04-20T14:48:25.983Z,13.60
2023-04-20T14:53:24.746Z,13.70
2023-04-20T14:58:23.531Z,13.70
2023-04-20T15:03:23.655Z,13.70
2023-04-20T15:08:22.315Z,13.80
2023-04-20T15:13:20.989Z,13.80
2023-04-20T15:18:20.230Z,13.90
2023-04-20T15:23:19.861Z,13.80
2023-04-20T15:28:18.714Z,13.70
2023-04-20T15:33:17.708Z,13.70
2023-04-20T15:38:16.813Z,13.80
2023-04-20T15:43:16.679Z,13.80
2023-04-20T15:48:15.148Z,13.90
2023-04-20T15:53:13.740Z,13.90
2023-04-20T15:58:12.401Z,14.00
2023-04-20T16:03:12.234Z,14.00
2023-04-20T16:08:10.841Z,14.10
2023-04-20T16:13:09.021Z,14.10
2023-04-20T16:18:07.603Z,14.20
2023-04-20T16:23:07.613Z,14.20
2023-04-20T16:28:06.296Z,14.10
2023-04-20T16:33:06.337Z,14.00
2023-04-20T16:38:07.733Z,13.90
2023-04-20T16:43:08.350Z,13.90
2023-04-20T16:48:06.600Z,13.90
2023-04-20T16:53:06.760Z,13.90
2023-04-20T16:58:05.507Z,13.80
2023-04-20T17:03:06.828Z,13.80
2023-04-20T17:08:06.993Z,13.70
2023-04-20T17:13:05.703Z,13.60
2023-04-20T17:18:04.890Z,13.40
2023-04-20T17:23:03.448Z,13.30
2023-04-20T17:28:04.031Z,13.20
2023-04-20T17:33:02.536Z,13.20
2023-04-20T17:38:01.106Z,13.10
2023-04-20T17:42:59.628Z,13.00
2023-04-20T17:47:59.481Z,13.00
2023-04-20T17:52:58.116Z,12.90
2023-04-20T17:57:56.675Z,12.90
2023-04-20T18:02:55.276Z,12.90
2023-04-20T18:07:55.371Z,12.80
2023-04-20T18:12:53.837Z,12.90
2023-04-20T18:17:52.749Z,12.80
2023-04-20T18:22:51.078Z,12.80
2023-04-20T18:27:51.491Z,12.70
2023-04-20T18:32:50.093Z,12.70
2023-04-20T18:37:48.329Z,12.60
2023-04-20T18:42:46.888Z,12.60
2023-04-20T18:47:46.945Z,12.60
2023-04-20T18:52:45.109Z,12.60
2023-04-20T18:57:43.947Z,12.40
2023-04-20T19:02:42.401Z,12.30
2023-04-20T19:07:42.532Z,12.20
2023-04-20T19:12:40.823Z,12.20
2023-04-20T19:17:39.747Z,12.10
2023-04-20T19:22:38.319Z,12.00
2023-04-20T19:27:38.233Z,12.00
2023-04-20T19:32:37.117Z,12.00
2023-04-20T19:37:35.357Z,11.90
2023-04-20T19:42:34.215Z,11.80
2023-04-20T19:47:34.194Z,11.70
2023-04-20T19:52:34.400Z,11.70
2023-04-20T19:57:32.637Z,11.70
2023-04-20T20:02:31.467Z,11.60
2023-04-20T20:07:31.475Z,11.40
2023-04-20T20:12:30.045Z,11.40
2023-04-20T20:17:28.253Z,11.40
2023-04-20T20:22:26.816Z,11.30
2023-04-20T20:27:26.840Z,11.30
2023-04-20T20:32:25.675Z,11.30
2023-04-20T20:37:24.341Z,11.30
2023-04-20T20:42:23.859Z,11.30
2023-04-20T20:47:23.761Z,11.20
2023-04-20T20:52:22.494Z,11.10
2023-04-20T20:57:21.005Z,11.10
2023-04-20T21:02:19.652Z,11.10
2023-04-20T21:07:19.626Z,11.00
2023-04-20T21:12:18.102Z,11.00
2023-04-20T21:17:16.920Z,11.00
2023-04-20T21:22:15.426Z,10.90
2023-04-20T21:27:15.364Z,10.90
2023-04-20T21:32:13.513Z,10.90
2023-04-20T21:37:12.360Z,10.80
2023-04-20T21:42:11.089Z,10.70
2023-04-20T21:47:11.089Z,10.50
2023-04-20T21:52:09.450Z,10.40
2023-04-20T21:57:07.603Z,10.40
2023-04-20T22:02:06.531Z,10.40
2023-04-20T22:07:06.506Z,10.30
2023-04-20T22:12:05.551Z,10.30
2023-04-20T22:17:05.354Z,10.20
2023-04-20T22:22:05.217Z,10.20
2023-04-20T22:27:03.513Z,10.20
2023-04-20T22:32:02.345Z,10.20
2023-04-20T22:37:00.854Z,10.20
2023-04-20T22:42:02.362Z,10.10
2023-04-20T22:47:01.563Z,10.00
2023-04-20T22:52:00.106Z,10.00
2023-04-20T22:56:59.068Z,10.00
2023-04-20T23:01:58.973Z,9.90
2023-04-20T23:06:58.079Z,9.90
2023-04-20T23:11:56.961Z,9.70
2023-04-20T23:16:55.113Z,9.70
2023-04-20T23:21:55.309Z,9.50
2023-04-20T23:26:54.003Z,9.50
2023-04-20T23:31:52.519Z,9.50
2023-04-20T23:36:54.141Z,9.50
2023-04-20T23:41:54.031Z,9.40
2023-04-20T23:46:52.542Z,9.30
2023-04-20T23:51:51.132Z,9.30
2023-04-20T23:56:49.277Z,9.30
